Time,TemperatureF,DewpointF,PressureIn,WindDirection,WindDirectionDegrees,WindSpeedMPH,WindSpeedGustMPH,Humidity,HourlyPrecipIn,Conditions,Clouds,dailyrainin,SoftwareType,DateUTC
2013-04-27 00:10:00,53.3,42.0,30.32,SW,235,0.0,0.0,65,0.00,,,0.00,weatherlink.com 1.10,2013-04-27 04:10:00,
2013-04-27 00:25:00,53.2,42.0,30.32,SW,236,0.0,1.0,65,0.00,,,0.00,weatherlink.com 1.10,2013-04-27 04:25:00,
2013-04-27 00:40:00,53.1,42.0,30.32,SW,236,0.0,0.0,67,0.00,,,0.00,weatherlink.com 1.10,2013-04-27 04:40:00,
2013-04-27 00:55:00,53.0,43.0,30.31,SW,236,0.0,0.0,68,0.00,,,0.00,weatherlink.com 1.10,2013-04-27 04:55:00,
2013-04-27 01:10:00,52.8,42.0,30.31,SW,236,0.0,0.0,68,0.00,,,0.00,weatherlink.com 1.10,2013-04-27 05:10:00,
2013-04-27 01:25:00,52.6,43.0,30.30,SW,236,0.0,0.0,70,0.00,,,0.00,weatherlink.com 1.10,2013-04-27 05:25:00,
2013-04-27 01:40:00,52.2,42.0,30.30,SSE,158,0.0,1.0,69,0.00,,,0.00,weatherlink.com 1.10,2013-04-27 05:40:00,
2013-04-27 01:55:00,52.2,43.0,30.29,SSE,158,0.0,0.0,70,0.00,,,0.00,weatherlink.com 1.10,2013-04-27 05:55:00,
2013-04-27 02:10:00,52.0,42.0,30.30,SSE,158,0.0,0.0,68,0.00,,,0.00,weatherlink.com 1.10,2013-04-27 06:10:00,
2013-04-27 02:25:00,51.7,43.0,30.30,SSE,158,0.0,1.0,71,0.00,,,0.00,weatherlink.com 1.10,2013-04-27 06:25:00,
2013-04-27 02:40:00,51.6,42.0,30.31,WSW,252,0.0,0.0,71,0.00,,,0.00,weatherlink.com 1.10,2013-04-27 06:40:00,
2013-04-27 02:55:00,51.6,42.0,30.31,WSW,252,0.0,0.0,71,0.00,,,0.00,weatherlink.com 1.10,2013-04-27 06:55:00,
2013-04-27 03:10:00,51.6,43.0,30.30,WSW,252,0.0,0.0,73,0.00,,,0.00,weatherlink.com 1.10,2013-04-27 07:10:00,
2013-04-27 03:25:00,51.5,43.0,30.29,WSW,250,0.0,0.0,73,0.00,,,0.00,weatherlink.com 1.10,2013-04-27 07:25:00,
2013-04-27 03:40:00,51.0,43.0,30.28,WSW,250,0.0,0.0,73,0.00,,,0.00,weatherlink.com 1.10,2013-04-27 07:40:00,
2013-04-27 03:55:00,50.8,43.0,30.27,WSW,250,0.0,0.0,75,0.00,,,0.00,weatherlink.com 1.10,2013-04-27 07:55:00,
2013-04-27 04:10:00,50.0,43.0,30.28,WSW,250,0.0,0.0,76,0.00,,,0.00,weatherlink.com 1.10,2013-04-27 08:10:00,
2013-04-27 04:25:00,49.9,43.0,30.27,WSW,250,0.0,0.0,77,0.00,,,0.00,weatherlink.com 1.10,2013-04-27 08:25:00,
2013-04-27 04:40:00,50.3,44.0,30.26,WSW,250,0.0,0.0,78,0.00,,,0.00,weatherlink.com 1.10,2013-04-27 08:40:00,
2013-04-27 04:55:00,50.6,44.0,30.26,WSW,243,0.0,0.0,78,0.00,,,0.00,weatherlink.com 1.10,2013-04-27 08:55:00,
2013-04-27 05:10:00,50.6,44.0,30.27,WSW,243,0.0,0.0,78,0.00,,,0.00,weatherlink.com 1.10,2013-04-27 09:10:00,
2013-04-27 05:25:00,50.7,44.0,30.26,WSW,243,0.0,0.0,77,0.00,,,0.00,weatherlink.com 1.10,2013-04-27 09:25:00,
2013-04-27 05:40:00,50.8,44.0,30.25,WSW,243,0.0,0.0,76,0.00,,,0.00,weatherlink.com 1.10,2013-04-27 09:40:00,
2013-04-27 05:56:00,50.9,44.0,30.25,WSW,243,0.0,1.0,76,0.00,,,0.00,weatherlink.com 1.10,2013-04-27 09:56:00,
2013-04-27 06:11:00,51.0,44.0,30.24,SW,236,0.0,1.0,76,0.00,,,0.00,weatherlink.com 1.10,2013-04-27 10:11:00,
2013-04-27 06:26:00,51.0,44.0,30.24,SW,236,0.0,1.0,77,0.00,,,0.00,weatherlink.com 1.10,2013-04-27 10:26:00,
2013-04-27 06:41:00,51.0,44.0,30.24,SW,236,0.0,0.0,77,0.00,,,0.00,weatherlink.com 1.10,2013-04-27 10:41:00,
2013-04-27 06:56:00,51.0,44.0,30.24,SW,236,0.0,0.0,78,0.00,,,0.00,weatherlink.com 1.10,2013-04-27 10:56:00,
2013-04-27 07:11:00,51.1,44.0,30.23,SW,236,0.0,1.0,77,0.00,,,0.00,weatherlink.com 1.10,2013-04-27 11:11:00,
2013-04-27 07:26:00,51.2,44.0,30.23,SSW,211,0.0,1.0,76,0.00,,,0.00,weatherlink.com 1.10,2013-04-27 11:26:00,
2013-04-27 07:41:00,51.5,44.0,30.23,SSW,211,0.0,1.0,76,0.00,,,0.00,weatherlink.com 1.10,2013-04-27 11:41:00,
2013-04-27 07:56:00,51.8,44.0,30.23,SSW,211,0.0,0.0,75,0.00,,,0.00,weatherlink.com 1.10,2013-04-27 11:56:00,
2013-04-27 08:11:00,52.0,44.0,30.23,SE,133,0.0,1.0,74,0.00,,,0.00,weatherlink.com 1.10,2013-04-27 12:11:00,
2013-04-27 08:26:00,52.5,44.0,30.22,East,92,1.0,2.0,74,0.00,,,0.00,weatherlink.com 1.10,2013-04-27 12:26:00,
2013-04-27 08:41:00,52.9,45.0,30.23,East,84,0.0,2.0,74,0.00,,,0.00,weatherlink.com 1.10,2013-04-27 12:41:00,
2013-04-27 08:56:00,53.2,45.0,30.24,SE,140,0.0,1.0,74,0.00,,,0.00,weatherlink.com 1.10,2013-04-27 12:56:00,
2013-04-27 09:11:00,53.3,45.0,30.24,SE,136,0.0,1.0,74,0.00,,,0.00,weatherlink.com 1.10,2013-04-27 13:11:00,
2013-04-27 09:26:00,53.3,46.0,30.23,East,95,0.0,1.0,75,0.00,,,0.00,weatherlink.com 1.10,2013-04-27 13:26:00,
2013-04-27 09:41:00,53.6,46.0,30.23,SE,143,0.0,1.0,75,0.00,,,0.00,weatherlink.com 1.10,2013-04-27 13:41:00,
2013-04-27 09:56:00,53.8,46.0,30.23,SE,144,0.0,1.0,75,0.00,,,0.00,weatherlink.com 1.10,2013-04-27 13:56:00,
2013-04-27 10:41:00,54.3,47.0,30.21,SW,235,0.0,3.0,76,0.00,,,0.00,weatherlink.com 1.10,2013-04-27 14:41:00,
2013-04-27 11:11:00,55.0,48.0,30.22,ESE,118,0.0,2.0,76,0.00,,,0.00,weatherlink.com 1.10,2013-04-27 15:11:00,
2013-04-27 11:26:00,55.4,48.0,30.22,ESE,115,0.0,1.0,76,0.00,,,0.00,weatherlink.com 1.10,2013-04-27 15:26:00,
2013-04-27 11:41:00,55.8,48.0,30.22,East,100,1.0,2.0,75,0.00,,,0.00,weatherlink.com 1.10,2013-04-27 15:41:00,
2013-04-27 11:56:00,56.1,48.0,30.22,SE,143,3.0,5.0,75,0.00,,,0.00,weatherlink.com 1.10,2013-04-27 15:56:00,
2013-04-27 12:26:00,56.9,49.0,30.22,SE,143,0.0,4.0,75,0.00,,,0.00,weatherlink.com 1.10,2013-04-27 16:26:00,
2013-04-27 12:41:00,57.4,49.0,30.22,SSE,160,0.0,3.0,74,0.00,,,0.00,weatherlink.com 1.10,2013-04-27 16:41:00,
2013-04-27 12:56:00,57.8,50.0,30.21,SE,129,0.0,5.0,74,0.00,,,0.00,weatherlink.com 1.10,2013-04-27 16:56:00,
2013-04-27 13:11:00,57.7,50.0,30.21,West,266,0.0,6.0,76,0.00,,,0.00,weatherlink.com 1.10,2013-04-27 17:11:00,
2013-04-27 13:26:00,56.9,51.0,30.20,SSE,165,6.0,6.0,80,0.00,,,0.00,weatherlink.com 1.10,2013-04-27 17:26:00,
2013-04-27 13:56:00,57.0,51.0,30.18,SSE,165,1.0,10.0,81,0.00,,,0.00,weatherlink.com 1.10,2013-04-27 17:56:00,
2013-04-27 14:12:00,57.5,52.0,30.17,South,177,5.0,9.0,81,0.00,,,0.00,weatherlink.com 1.10,2013-04-27 18:12:00,
2013-04-27 14:26:00,58.6,52.0,30.15,SW,219,1.0,9.0,79,0.00,,,0.00,weatherlink.com 1.10,2013-04-27 18:26:00,
2013-04-27 14:41:00,58.7,52.0,30.14,SSE,162,0.0,8.0,78,0.00,,,0.00,weatherlink.com 1.10,2013-04-27 18:41:00,
2013-04-27 14:56:00,59.1,52.0,30.12,SE,140,3.0,9.0,78,0.00,,,0.00,weatherlink.com 1.10,2013-04-27 18:56:00,
2013-04-27 15:26:00,59.9,53.0,30.13,East,79,9.0,10.0,78,0.00,,,0.00,weatherlink.com 1.10,2013-04-27 19:26:00,
2013-04-27 15:41:00,59.3,53.0,30.13,WSW,248,2.0,9.0,80,0.00,,,0.00,weatherlink.com 1.10,2013-04-27 19:41:00,
2013-04-27 16:12:00,58.4,53.0,30.12,South,181,1.0,8.0,82,0.00,,,0.00,weatherlink.com 1.10,2013-04-27 20:12:00,
2013-04-27 16:26:00,58.3,53.0,30.11,SE,143,0.0,3.0,82,0.00,,,0.00,weatherlink.com 1.10,2013-04-27 20:26:00,
2013-04-27 16:41:00,58.2,53.0,30.11,SSE,162,8.0,9.0,82,0.00,,,0.00,weatherlink.com 1.10,2013-04-27 20:41:00,
2013-04-27 16:56:00,58.0,53.0,30.11,SSE,165,1.0,7.0,82,0.00,,,0.00,weatherlink.com 1.10,2013-04-27 20:56:00,
2013-04-27 17:26:00,58.2,53.0,30.10,East,100,0.0,5.0,82,0.00,,,0.00,weatherlink.com 1.10,2013-04-27 21:26:00,
2013-04-27 17:41:00,58.2,53.0,30.09,SSE,154,0.0,5.0,83,0.00,,,0.00,weatherlink.com 1.10,2013-04-27 21:41:00,
2013-04-27 17:56:00,57.5,54.0,30.09,South,174,0.0,3.0,87,0.00,,,0.00,weatherlink.com 1.10,2013-04-27 21:56:00,
2013-04-27 18:26:00,57.1,54.0,30.07,SE,136,2.0,3.0,88,0.00,,,0.00,weatherlink.com 1.10,2013-04-27 22:26:00,
2013-04-27 18:41:00,57.5,54.0,30.06,SW,229,2.0,4.0,87,0.00,,,0.00,weatherlink.com 1.10,2013-04-27 22:41:00,
2013-04-27 18:56:00,57.8,53.0,30.06,SE,128,2.0,4.0,85,0.00,,,0.00,weatherlink.com 1.10,2013-04-27 22:56:00,
2013-04-27 19:26:00,57.9,54.0,30.04,East,86,1.0,6.0,85,0.00,,,0.00,weatherlink.com 1.10,2013-04-27 23:26:00,
2013-04-27 19:41:00,58.0,54.0,30.03,SSE,162,2.0,9.0,85,0.00,,,0.00,weatherlink.com 1.10,2013-04-27 23:41:00,
2013-04-27 19:56:00,58.1,53.0,30.03,SE,145,3.0,8.0,84,0.00,,,0.00,weatherlink.com 1.10,2013-04-27 23:56:00,
2013-04-27 20:12:00,58.1,53.0,30.02,SE,131,3.0,4.0,84,0.00,,,0.00,weatherlink.com 1.10,2013-04-28 00:12:00,
2013-04-27 20:41:00,57.4,53.0,30.02,NE,52,1.0,9.0,86,0.01,,,0.01,weatherlink.com 1.10,2013-04-28 00:41:00,
2013-04-27 20:56:00,57.1,53.0,30.02,SE,140,4.0,8.0,87,0.01,,,0.01,weatherlink.com 1.10,2013-04-28 00:56:00,
2013-04-27 21:12:00,57.0,54.0,30.01,SSE,159,2.0,9.0,88,0.01,,,0.01,weatherlink.com 1.10,2013-04-28 01:12:00,
2013-04-27 21:27:00,56.4,54.0,29.99,SSE,158,6.0,9.0,90,0.03,,,0.04,weatherlink.com 1.10,2013-04-28 01:27:00,
2013-04-27 21:42:00,55.9,53.0,30.00,SE,138,3.0,8.0,91,0.04,,,0.05,weatherlink.com 1.10,2013-04-28 01:42:00,
2013-04-27 21:57:00,55.7,54.0,30.00,SSE,160,2.0,6.0,92,0.04,,,0.05,weatherlink.com 1.10,2013-04-28 01:57:00,
2013-04-27 22:12:00,55.6,53.0,30.00,SSE,151,0.0,7.0,92,0.05,,,0.06,weatherlink.com 1.10,2013-04-28 02:12:00,
2013-04-27 22:27:00,55.5,53.0,29.99,SSE,163,1.0,8.0,92,0.02,,,0.06,weatherlink.com 1.10,2013-04-28 02:27:00,
2013-04-27 22:42:00,55.4,54.0,30.00,SE,139,2.0,5.0,93,0.01,,,0.06,weatherlink.com 1.10,2013-04-28 02:42:00,
2013-04-27 22:57:00,55.4,54.0,29.99,SSE,147,3.0,9.0,93,0.01,,,0.06,weatherlink.com 1.10,2013-04-28 02:57:00,
2013-04-27 23:12:00,55.5,54.0,29.98,ESE,118,3.0,6.0,93,0.00,,,0.06,weatherlink.com 1.10,2013-04-28 03:12:00,
2013-04-27 23:27:00,55.4,54.0,29.96,SSE,152,0.0,5.0,93,0.00,,,0.06,weatherlink.com 1.10,2013-04-28 03:27:00,
2013-04-27 23:42:00,55.4,54.0,29.94,ENE,65,0.0,7.0,93,0.00,,,0.06,weatherlink.com 1.10,2013-04-28 03:42:00,
2013-04-27 23:57:00,55.5,54.0,29.95,ESE,115,1.0,5.0,93,0.02,,,0.08,weatherlink.com 1.10,2013-04-28 03:57:00,